createdAt,value
2022-11-24T00:02:31.454Z,4.10
2022-11-24T00:04:59.233Z,3.87
2022-11-24T00:07:32.963Z,3.17
2022-11-24T00:16:12.289Z,3.10
2022-11-24T00:21:44.904Z,3.15
2022-11-24T00:27:12.084Z,4.03
2022-11-24T00:29:39.112Z,3.40
2022-11-24T00:32:11.339Z,3.13
2022-11-24T00:34:44.217Z,3.13
2022-11-24T00:37:13.793Z,3.03
2022-11-24T01:01:05.948Z,3.53
2022-11-24T01:03:35.642Z,4.30
2022-11-24T01:06:04.807Z,4.22
2022-11-24T01:09:03.921Z,3.65
2022-11-24T01:11:51.674Z,3.67
2022-11-24T01:14:19.956Z,3.97
2022-11-24T01:16:49.819Z,4.55
2022-11-24T01:19:16.804Z,4.38
2022-11-24T01:21:43.744Z,4.22
2022-11-24T01:24:11.574Z,4.47
2022-11-24T01:48:39.701Z,2.80
2022-11-24T01:51:12.547Z,1.77
2022-11-24T01:53:42.182Z,1.98
2022-11-24T01:56:10.845Z,1.70
2022-11-24T01:58:41.072Z,1.33
2022-11-24T02:01:09.788Z,1.60
2022-11-24T02:03:40.035Z,1.42
2022-11-24T02:06:14.227Z,1.27
2022-11-24T02:08:48.068Z,1.30
2022-11-24T02:13:43.986Z,1.00
2022-11-24T02:19:18.904Z,0.70
2022-11-24T02:21:49.483Z,1.13
2022-11-24T02:24:25.202Z,1.20
2022-11-24T02:26:53.966Z,1.45
2022-11-24T02:29:22.119Z,0.75
2022-11-24T02:31:53.110Z,0.90
2022-11-24T02:34:20.567Z,1.30
2022-11-24T02:36:47.497Z,0.52
2022-11-24T02:39:16.685Z,0.65
2022-11-24T02:41:47.062Z,0.90
2022-11-24T02:44:18.126Z,0.63
2022-11-24T02:46:47.001Z,1.05
2022-11-24T02:49:14.536Z,1.15
2022-11-24T02:51:41.330Z,1.15
2022-11-24T02:54:08.214Z,1.40
2022-11-24T02:56:35.171Z,1.17
2022-11-24T02:59:02.379Z,1.20
2022-11-24T03:01:32.495Z,1.73
2022-11-24T03:03:59.861Z,1.35
2022-11-24T03:06:29.383Z,1.33
2022-11-24T03:08:56.209Z,1.60
2022-11-24T03:11:23.619Z,1.50
2022-11-24T03:13:50.566Z,1.67
2022-11-24T03:16:17.727Z,1.83
2022-11-24T03:18:48.183Z,1.80
2022-11-24T03:21:19.818Z,1.40
2022-11-24T03:23:47.053Z,1.57
2022-11-24T03:26:21.524Z,1.67
2022-11-24T03:28:48.605Z,1.77
2022-11-24T03:31:15.932Z,1.83
2022-11-24T03:33:54.619Z,1.47
2022-11-24T03:36:44.492Z,1.00
2022-11-24T03:39:31.908Z,1.95
2022-11-24T03:41:58.947Z,1.90
2022-11-24T03:44:34.132Z,1.83
2022-11-24T03:47:18.886Z,1.65
2022-11-24T03:49:50.275Z,1.77
2022-11-24T03:52:17.326Z,1.43
2022-11-24T03:54:47.886Z,1.23
2022-11-24T03:57:14.787Z,1.40
2022-11-24T03:59:42.390Z,1.70
2022-11-24T04:02:09.501Z,1.43
2022-11-24T04:04:39.132Z,1.20
2022-11-24T04:07:07.450Z,1.83
2022-11-24T04:09:34.491Z,1.30
2022-11-24T04:12:34.185Z,1.30
2022-11-24T04:15:09.789Z,1.40
2022-11-24T04:17:50.559Z,1.63
2022-11-24T04:20:18.158Z,2.43
2022-11-24T04:22:56.938Z,1.33
2022-11-24T04:25:27.813Z,1.40
2022-11-24T04:27:56.213Z,1.10
2022-11-24T04:30:24.599Z,1.47
2022-11-24T04:32:51.796Z,1.83
2022-11-24T04:35:42.408Z,2.27
2022-11-24T04:39:23.378Z,1.25
2022-11-24T04:41:14.705Z,2.00
2022-11-24T04:43:41.642Z,2.20
2022-11-24T04:46:10.466Z,2.70
2022-11-24T04:48:37.364Z,2.60
2022-11-24T04:51:04.879Z,6.43
2022-11-24T04:53:33.166Z,5.60
2022-11-24T04:56:00.080Z,8.85
2022-11-24T04:58:28.720Z,19.77
2022-11-24T05:00:58.892Z,5.47
2022-11-24T05:03:26.021Z,3.60
2022-11-24T05:05:58.914Z,8.77
2022-11-24T05:08:32.136Z,6.37
2022-11-24T05:11:11.340Z,3.37
2022-11-24T05:13:38.165Z,2.30
2022-11-24T05:16:09.515Z,3.50
2022-11-24T05:18:43.546Z,2.13
2022-11-24T05:21:10.525Z,2.50
2022-11-24T05:23:38.443Z,2.57
2022-11-24T05:26:07.116Z,2.67
2022-11-24T05:28:35.302Z,2.07
2022-11-24T05:31:42.239Z,3.00
2022-11-24T05:34:10.195Z,2.40
2022-11-24T05:36:54.516Z,2.83
2022-11-24T05:39:44.101Z,2.50
2022-11-24T05:42:33.256Z,2.47
2022-11-24T05:45:00.251Z,2.40
2022-11-24T05:47:27.110Z,2.60
2022-11-24T05:49:54.017Z,2.20
2022-11-24T05:52:20.866Z,2.60
2022-11-24T05:54:47.804Z,2.37
2022-11-24T05:57:16.698Z,2.87
2022-11-24T05:59:43.688Z,2.57
2022-11-24T06:02:11.048Z,2.67
2022-11-24T06:04:38.135Z,3.23
2022-11-24T06:07:08.297Z,3.40
2022-11-24T06:09:36.815Z,3.07
2022-11-24T06:12:03.933Z,2.20
2022-11-24T06:14:32.477Z,2.40
2022-11-24T06:16:59.691Z,2.53
2022-11-24T06:19:26.625Z,1.80
2022-11-24T06:25:28.443Z,2.13
2022-11-24T06:27:55.340Z,2.40
2022-11-24T06:30:23.530Z,3.10
2022-11-24T06:32:54.823Z,2.97
2022-11-24T06:35:21.621Z,2.73
2022-11-24T06:37:48.421Z,3.07
2022-11-24T06:40:15.217Z,3.23
2022-11-24T06:42:42.047Z,2.57
2022-11-24T06:45:09.903Z,3.53
2022-11-24T06:47:38.092Z,2.67
2022-11-24T06:50:05.992Z,2.83
2022-11-24T06:52:32.815Z,3.03
2022-11-24T06:54:59.647Z,3.03
2022-11-24T06:57:27.382Z,3.00
2022-11-24T06:59:54.194Z,2.57
2022-11-24T07:02:21.063Z,3.33
2022-11-24T07:04:49.270Z,3.10
2022-11-24T07:07:16.036Z,3.90
2022-11-24T07:09:42.941Z,4.30
2022-11-24T07:12:09.897Z,5.13
2022-11-24T07:14:36.992Z,6.13
2022-11-24T07:17:04.860Z,6.77
2022-11-24T07:19:31.723Z,6.70
2022-11-24T07:21:59.903Z,6.63
2022-11-24T07:24:26.740Z,5.73
2022-11-24T07:26:53.560Z,5.80
2022-11-24T07:29:20.387Z,6.03
2022-11-24T07:31:47.360Z,6.57
2022-11-24T07:34:14.912Z,5.60
2022-11-24T07:36:42.100Z,4.93
2022-11-24T07:39:10.277Z,5.47
2022-11-24T07:41:37.138Z,5.35
2022-11-24T07:44:04.216Z,4.40
2022-11-24T07:46:31.092Z,4.53
2022-11-24T07:48:58.018Z,4.40
2022-11-24T07:51:24.905Z,4.83
2022-11-24T07:53:51.670Z,3.97
2022-11-24T07:56:20.049Z,4.37
2022-11-24T07:58:51.328Z,4.37
2022-11-24T08:01:20.137Z,4.37
2022-11-24T08:03:47.629Z,5.13
2022-11-24T08:06:25.166Z,4.60
2022-11-24T08:08:55.105Z,4.93
2022-11-24T08:11:24.165Z,5.93
2022-11-24T08:13:51.360Z,6.80
2022-11-24T08:16:19.421Z,5.13
2022-11-24T08:18:49.883Z,5.57
2022-11-24T08:21:16.659Z,5.10
2022-11-24T08:23:43.449Z,4.50
2022-11-24T08:26:15.991Z,4.67
2022-11-24T08:28:44.804Z,5.17
2022-11-24T08:31:13.428Z,4.80
2022-11-24T08:33:40.813Z,4.93
2022-11-24T08:36:11.231Z,4.93
2022-11-24T08:38:38.406Z,5.87
2022-11-24T08:41:07.465Z,5.30
2022-11-24T08:43:34.341Z,7.07
2022-11-24T08:46:04.299Z,4.70
2022-11-24T08:48:31.739Z,4.90
2022-11-24T08:50:59.261Z,4.53
2022-11-24T08:53:26.271Z,4.60
2022-11-24T08:55:53.232Z,4.60
2022-11-24T08:58:19.958Z,4.80
2022-11-24T09:00:46.763Z,5.10
2022-11-24T09:03:14.904Z,4.93
2022-11-24T09:05:51.755Z,5.50
2022-11-24T09:08:19.526Z,4.07
2022-11-24T09:10:46.868Z,4.50
2022-11-24T09:13:13.803Z,4.03
2022-11-24T09:15:40.748Z,5.00
2022-11-24T09:18:07.648Z,5.60
2022-11-24T09:20:35.814Z,4.57
2022-11-24T09:23:02.849Z,5.53
2022-11-24T09:25:29.719Z,4.90
2022-11-24T09:27:57.340Z,5.32
2022-11-24T09:30:24.174Z,4.90
2022-11-24T09:32:50.993Z,4.78
2022-11-24T09:35:17.833Z,4.88
2022-11-24T09:37:48.283Z,5.07
2022-11-24T09:40:16.610Z,4.28
2022-11-24T09:42:53.559Z,4.47
2022-11-24T09:46:04.561Z,4.22
2022-11-24T09:48:34.576Z,4.93
2022-11-24T09:51:04.387Z,7.60
2022-11-24T09:53:38.135Z,4.75
2022-11-24T09:56:16.503Z,4.97
2022-11-24T09:58:48.317Z,4.50
2022-11-24T10:01:18.024Z,4.28
2022-11-24T10:03:48.684Z,4.10
2022-11-24T10:06:22.856Z,4.82
2022-11-24T10:09:13.085Z,4.20
2022-11-24T10:11:45.880Z,5.10
2022-11-24T10:14:32.878Z,4.00
2022-11-24T10:17:11.438Z,3.63
2022-11-24T10:19:47.522Z,3.83
2022-11-24T10:22:35.434Z,4.70
2022-11-24T10:25:13.008Z,3.83
2022-11-24T10:27:44.254Z,3.88
2022-11-24T10:30:17.363Z,5.40
2022-11-24T10:32:47.738Z,4.22
2022-11-24T10:35:18.537Z,4.75
2022-11-24T10:37:54.580Z,4.57
2022-11-24T10:40:55.921Z,3.97
2022-11-24T10:43:17.786Z,5.72
2022-11-24T10:45:45.053Z,4.32
2022-11-24T10:48:19.912Z,5.05
2022-11-24T10:50:46.992Z,5.90
2022-11-24T10:53:19.114Z,5.35
2022-11-24T10:56:05.881Z,5.18
2022-11-24T10:58:37.885Z,5.00
2022-11-24T11:01:21.575Z,4.25
2022-11-24T11:03:51.523Z,4.33
2022-11-24T11:06:22.469Z,4.47
2022-11-24T11:08:49.490Z,4.90
2022-11-24T11:11:23.776Z,3.67
2022-11-24T11:14:01.685Z,4.25
2022-11-24T11:16:37.139Z,4.07
2022-11-24T11:19:20.190Z,4.15
2022-11-24T11:22:00.292Z,4.65
2022-11-24T11:24:28.992Z,3.63
2022-11-24T11:27:01.896Z,3.70
2022-11-24T11:35:07.653Z,3.83
2022-11-24T11:37:34.645Z,4.15
2022-11-24T11:40:02.253Z,3.60
2022-11-24T11:43:01.411Z,3.65
2022-11-24T11:45:30.039Z,4.00
2022-11-24T11:48:11.615Z,4.75
2022-11-24T11:51:14.806Z,4.32
2022-11-24T11:53:44.814Z,4.03
2022-11-24T11:56:22.051Z,4.60
2022-11-24T11:59:22.545Z,4.47
2022-11-24T12:02:08.919Z,3.75
2022-11-24T12:04:47.274Z,3.40
2022-11-24T12:07:31.978Z,3.78
2022-11-24T12:10:07.557Z,3.53
2022-11-24T12:12:53.187Z,3.95
2022-11-24T12:15:28.916Z,4.15
2022-11-24T12:18:06.508Z,4.28
2022-11-24T12:20:50.336Z,3.90
2022-11-24T12:23:24.899Z,3.72
2022-11-24T12:26:00.922Z,3.70
2022-11-24T12:28:37.035Z,4.18
2022-11-24T12:31:06.933Z,3.22
2022-11-24T12:34:03.692Z,3.72
2022-11-24T12:36:51.716Z,3.45
2022-11-24T12:39:27.627Z,3.63
2022-11-24T12:42:04.857Z,3.63
2022-11-24T12:44:45.810Z,3.85
2022-11-24T12:47:18.507Z,4.13
2022-11-24T12:50:02.021Z,3.95
2022-11-24T12:52:33.068Z,3.95
2022-11-24T12:55:01.744Z,4.15
2022-11-24T12:57:35.747Z,3.72
2022-11-24T13:00:07.469Z,3.92
2022-11-24T13:02:50.660Z,3.67
2022-11-24T13:05:25.311Z,3.70
2022-11-24T13:07:57.833Z,3.90
2022-11-24T13:13:30.318Z,4.32
2022-11-24T13:19:09.709Z,3.13
2022-11-24T13:24:24.205Z,2.83
2022-11-24T13:26:52.750Z,3.28
2022-11-24T13:29:35.247Z,3.42
2022-11-24T13:32:51.121Z,4.07
2022-11-24T13:35:17.968Z,3.22
2022-11-24T13:37:51.583Z,3.33
2022-11-24T13:40:54.198Z,3.22
2022-11-24T13:43:30.196Z,3.88
2022-11-24T13:45:57.180Z,4.10
2022-11-24T13:48:53.521Z,3.17
2022-11-24T13:51:24.549Z,3.42
2022-11-24T13:53:55.117Z,3.40
2022-11-24T13:56:25.668Z,3.38
2022-11-24T13:58:55.043Z,3.95
2022-11-24T14:01:23.883Z,3.60
2022-11-24T14:04:30.443Z,3.97
2022-11-24T14:07:07.986Z,4.10
2022-11-24T14:09:43.450Z,4.78
2022-11-24T14:12:14.828Z,4.15
2022-11-24T14:14:42.139Z,3.28
2022-11-24T14:17:16.631Z,3.65
2022-11-24T14:19:45.455Z,4.18
2022-11-24T14:22:18.856Z,3.40
2022-11-24T14:24:52.891Z,3.63
2022-11-24T14:27:26.404Z,3.95
2022-11-24T14:29:55.805Z,3.92
2022-11-24T14:32:23.063Z,3.75
2022-11-24T14:34:52.080Z,3.60
2022-11-24T14:37:20.142Z,4.35
2022-11-24T14:39:48.559Z,4.22
2022-11-24T14:42:19.321Z,3.97
2022-11-24T14:44:53.901Z,4.28
2022-11-24T14:47:30.917Z,4.32
2022-11-24T14:50:07.957Z,3.47
2022-11-24T14:52:35.889Z,3.88
2022-11-24T14:55:21.913Z,4.63
2022-11-24T14:57:49.825Z,4.78
2022-11-24T15:00:21.834Z,4.53
2022-11-24T15:02:52.123Z,4.30
2022-11-24T15:05:19.756Z,4.75
2022-11-24T15:07:48.029Z,4.53
2022-11-24T15:10:22.731Z,3.97
2022-11-24T15:12:53.873Z,4.82
2022-11-24T15:15:23.925Z,4.35
2022-11-24T15:17:52.942Z,4.63
2022-11-24T15:20:24.095Z,4.55
2022-11-24T15:22:52.492Z,4.78
2022-11-24T15:25:29.323Z,4.57
2022-11-24T15:27:56.416Z,3.95
2022-11-24T15:30:23.341Z,5.10
2022-11-24T15:32:52.160Z,3.92
2022-11-24T15:35:19.307Z,3.38
2022-11-24T15:37:46.090Z,5.07
2022-11-24T15:40:13.886Z,4.10
2022-11-24T15:42:51.022Z,4.28
2022-11-24T15:45:18.606Z,4.90
2022-11-24T15:47:45.467Z,4.65
2022-11-24T15:50:13.025Z,4.28
2022-11-24T15:52:40.437Z,4.68
2022-11-24T15:55:14.949Z,5.22
2022-11-24T15:57:43.459Z,4.55
2022-11-24T16:00:14.560Z,4.82
2022-11-24T16:02:41.461Z,4.13
2022-11-24T16:05:09.380Z,4.15
2022-11-24T16:07:36.220Z,4.13
2022-11-24T16:10:03.479Z,4.30
2022-11-24T16:12:30.507Z,4.38
2022-11-24T16:14:58.784Z,4.32
2022-11-24T16:17:25.652Z,5.18
2022-11-24T16:20:00.152Z,4.50
2022-11-24T16:22:27.665Z,4.20
2022-11-24T16:24:54.456Z,4.93
2022-11-24T16:27:21.242Z,4.63
2022-11-24T16:35:54.838Z,4.45
2022-11-24T16:38:21.716Z,5.55
2022-11-24T16:40:51.526Z,5.38
2022-11-24T16:43:24.788Z,4.63
2022-11-24T16:46:05.349Z,4.78
2022-11-24T16:48:35.676Z,4.07
2022-11-24T16:51:06.947Z,5.10
2022-11-24T16:53:33.949Z,4.97
2022-11-24T16:56:00.802Z,4.38
2022-11-24T16:58:27.903Z,4.93
2022-11-24T17:00:54.921Z,4.80
2022-11-24T17:03:21.851Z,5.05
2022-11-24T17:05:57.688Z,5.20
2022-11-24T17:08:26.317Z,4.68
2022-11-24T17:10:53.323Z,5.28
2022-11-24T17:13:21.731Z,4.93
2022-11-24T17:15:53.797Z,4.72
2022-11-24T17:18:24.946Z,4.63
2022-11-24T17:20:52.740Z,4.68
2022-11-24T17:23:19.845Z,4.55
2022-11-24T17:25:49.346Z,5.43
2022-11-24T17:28:16.373Z,4.80
2022-11-24T17:30:43.245Z,4.68
2022-11-24T17:33:10.157Z,5.63
2022-11-24T17:35:37.822Z,4.80
2022-11-24T17:38:04.960Z,3.95
2022-11-24T17:40:32.026Z,4.15
2022-11-24T17:43:00.917Z,4.75
2022-11-24T17:45:30.576Z,4.30
2022-11-24T17:48:00.014Z,5.40
2022-11-24T17:50:26.891Z,4.90
2022-11-24T17:52:54.209Z,4.38
2022-11-24T17:55:21.160Z,4.30
2022-11-24T17:57:49.156Z,4.25
2022-11-24T18:00:18.546Z,5.43
2022-11-24T18:02:47.266Z,4.28
2022-11-24T18:05:14.893Z,3.95
2022-11-24T18:07:42.007Z,3.67
2022-11-24T18:16:24.548Z,4.75
2022-11-24T18:19:07.447Z,3.75
2022-11-24T18:21:35.432Z,3.72
2022-11-24T18:24:02.209Z,4.03
2022-11-24T18:26:28.955Z,4.07
2022-11-24T18:28:55.730Z,3.80
2022-11-24T18:31:23.971Z,4.72
2022-11-24T18:33:50.904Z,3.88
2022-11-24T18:36:19.359Z,4.80
2022-11-24T18:38:46.181Z,4.93
2022-11-24T18:41:14.547Z,4.82
2022-11-24T18:43:41.742Z,4.22
2022-11-24T18:46:11.759Z,5.10
2022-11-24T18:48:40.461Z,4.20
2022-11-24T18:51:08.646Z,4.20
2022-11-24T18:53:35.487Z,3.65
2022-11-24T18:56:05.422Z,4.60
2022-11-24T18:58:34.385Z,3.90
2022-11-24T19:01:08.315Z,4.68
2022-11-24T19:03:37.591Z,4.82
2022-11-24T19:06:07.472Z,3.92
2022-11-24T19:08:34.343Z,3.65
2022-11-24T19:11:01.147Z,3.88
2022-11-24T19:13:28.231Z,4.35
2022-11-24T19:15:55.079Z,4.35
2022-11-24T19:18:21.924Z,4.53
2022-11-24T19:20:48.722Z,3.90
2022-11-24T19:23:18.799Z,4.43
2022-11-24T19:25:45.597Z,3.13
2022-11-24T19:28:12.738Z,3.67
2022-11-24T19:30:40.072Z,3.78
2022-11-24T19:33:07.524Z,4.07
2022-11-24T19:35:34.462Z,4.20
2022-11-24T19:38:01.569Z,5.07
2022-11-24T19:40:29.859Z,4.05
2022-11-24T19:42:56.682Z,4.18
2022-11-24T19:45:23.704Z,4.70
2022-11-24T19:47:50.501Z,4.97
2022-11-24T19:50:17.635Z,5.05
2022-11-24T19:52:44.445Z,4.72
2022-11-24T19:55:11.301Z,4.53
2022-11-24T19:57:39.532Z,4.78
2022-11-24T20:00:07.552Z,4.38
2022-11-24T20:02:34.362Z,5.68
2022-11-24T20:05:01.265Z,4.60
2022-11-24T20:07:28.137Z,6.10
2022-11-24T20:09:55.004Z,4.55
2022-11-24T20:12:21.772Z,4.18
2022-11-24T20:14:49.970Z,4.40
2022-11-24T20:17:17.000Z,4.32
2022-11-24T20:19:43.839Z,5.25
2022-11-24T20:22:10.962Z,4.78
2022-11-24T20:24:37.908Z,4.43
2022-11-24T20:27:04.965Z,4.03
2022-11-24T20:29:33.921Z,3.90
2022-11-24T20:32:02.206Z,4.38
2022-11-24T20:34:29.137Z,4.60
2022-11-24T20:36:56.002Z,3.88
2022-11-24T20:39:25.499Z,4.82
2022-11-24T20:41:52.689Z,4.55
2022-11-24T20:44:22.044Z,3.83
2022-11-24T20:46:49.649Z,5.43
2022-11-24T20:49:19.657Z,3.88
2022-11-24T20:51:49.656Z,4.47
2022-11-24T20:54:18.056Z,4.13
2022-11-24T20:56:46.495Z,5.18
2022-11-24T20:59:14.704Z,4.45
2022-11-24T21:01:43.851Z,4.45
2022-11-24T21:04:12.625Z,4.93
2022-11-24T21:06:41.551Z,4.63
2022-11-24T21:09:08.956Z,3.70
2022-11-24T21:11:36.693Z,4.38
2022-11-24T21:14:04.363Z,4.65
2022-11-24T21:16:32.874Z,4.80
2022-11-24T21:19:01.620Z,3.40
2022-11-24T21:21:34.637Z,4.25
2022-11-24T21:24:04.040Z,4.47
2022-11-24T21:26:30.921Z,4.53
2022-11-24T21:28:58.094Z,4.57
2022-11-24T21:31:25.044Z,4.80
2022-11-24T21:33:53.433Z,4.63
2022-11-24T21:36:22.339Z,3.33
2022-11-24T21:38:53.991Z,4.35
2022-11-24T21:41:23.371Z,4.47
2022-11-24T21:43:50.444Z,5.10
2022-11-24T21:46:17.378Z,5.90
2022-11-24T21:48:45.030Z,4.55
2022-11-24T21:51:13.973Z,6.07
2022-11-24T21:53:41.285Z,5.28
2022-11-24T21:56:12.900Z,4.22
2022-11-24T21:58:45.798Z,4.38
2022-11-24T22:01:13.253Z,5.03
2022-11-24T22:03:40.270Z,4.88
2022-11-24T22:06:07.955Z,4.95
2022-11-24T22:08:35.066Z,4.57
2022-11-24T22:11:02.911Z,5.75
2022-11-24T22:13:32.095Z,5.53
2022-11-24T22:16:02.018Z,4.90
2022-11-24T22:18:33.459Z,5.43
2022-11-24T22:21:01.277Z,5.18
2022-11-24T22:23:28.176Z,5.10
2022-11-24T22:25:54.995Z,4.97
2022-11-24T22:28:21.807Z,5.60
2022-11-24T22:30:48.706Z,4.75
2022-11-24T22:33:17.371Z,4.70
2022-11-24T22:35:44.206Z,4.47
2022-11-24T22:38:11.132Z,5.80
2022-11-24T22:40:37.944Z,4.80
2022-11-24T22:43:04.848Z,3.85
2022-11-24T22:45:31.673Z,4.78
2022-11-24T22:47:58.589Z,4.25
2022-11-24T22:50:26.940Z,5.78
2022-11-24T22:52:53.867Z,5.85
2022-11-24T22:55:20.730Z,4.65
2022-11-24T22:57:48.402Z,4.20
2022-11-24T23:00:16.831Z,5.10
2022-11-24T23:02:43.827Z,5.50
2022-11-24T23:05:10.699Z,4.78
2022-11-24T23:07:38.983Z,4.45
2022-11-24T23:10:06.984Z,4.90
2022-11-24T23:12:34.057Z,4.15
2022-11-24T23:15:00.862Z,4.50
2022-11-24T23:17:27.708Z,4.72
2022-11-24T23:19:54.593Z,4.82
2022-11-24T23:22:21.638Z,4.68
2022-11-24T23:24:49.906Z,4.45
2022-11-24T23:28:05.802Z,3.53
2022-11-24T23:30:30.250Z,4.07
2022-11-24T23:33:07.360Z,3.65
2022-11-24T23:36:24.846Z,3.28
2022-11-24T23:39:03.501Z,2.47
2022-11-24T23:42:15.611Z,2.67
2022-11-24T23:44:54.582Z,2.38
2022-11-24T23:47:27.934Z,2.75
2022-11-24T23:50:09.235Z,2.40
2022-11-24T23:52:41.811Z,1.88
2022-11-24T23:55:09.055Z,1.52
2022-11-24T23:57:40.376Z,1.83
